sensor_id;sensor_type;location;lat;lon;timestamp;pressure;altitude;pressure_sealevel;temperature;humidity
53960;BME280;39866;48.638;-2.020;2024-03-07T00:02:06;101724.09;;;13.22;100.00
53960;BME280;39866;48.638;-2.020;2024-03-07T00:04:31;101717.78;;;13.28;100.00
53960;BME280;39866;48.638;-2.020;2024-03-07T00:06:57;101724.94;;;13.26;100.00
53960;BME280;39866;48.638;-2.020;2024-03-07T00:09:22;101716.03;;;13.25;100.00
53960;BME280;39866;48.638;-2.020;2024-03-07T00:11:49;101717.00;;;13.21;100.00
53960;BME280;39866;48.638;-2.020;2024-03-07T00:14:15;101712.72;;;13.14;100.00
53960;BME280;39866;48.638;-2.020;2024-03-07T00:16:40;101710.03;;;13.14;100.00
53960;BME280;39866;48.638;-2.020;2024-03-07T00:19:06;101716.47;;;13.05;100.00
53960;BME280;39866;48.638;-2.020;2024-03-07T00:21:31;101707.53;;;13.08;100.00
53960;BME280;39866;48.638;-2.020;2024-03-07T00:23:57;101704.97;;;13.02;100.00
53960;BME280;39866;48.638;-2.020;2024-03-07T00:26:22;101702.31;;;13.02;100.00
53960;BME280;39866;48.638;-2.020;2024-03-07T00:28:47;101698.94;;;12.94;100.00
53960;BME280;39866;48.638;-2.020;2024-03-07T00:31:13;101693.78;;;12.86;100.00
53960;BME280;39866;48.638;-2.020;2024-03-07T00:33:38;101692.88;;;12.85;100.00
53960;BME280;39866;48.638;-2.020;2024-03-07T00:36:04;101701.13;;;12.76;100.00
53960;BME280;39866;48.638;-2.020;2024-03-07T00:38:31;101689.50;;;12.77;100.00
53960;BME280;39866;48.638;-2.020;2024-03-07T00:40:56;101682.41;;;12.78;100.00
53960;BME280;39866;48.638;-2.020;2024-03-07T00:43:21;101689.50;;;12.77;100.00
53960;BME280;39866;48.638;-2.020;2024-03-07T00:45:47;101694.03;;;12.75;100.00
53960;BME280;39866;48.638;-2.020;2024-03-07T00:48:15;101688.78;;;12.71;100.00
53960;BME280;39866;48.638;-2.020;2024-03-07T00:50:41;101691.53;;;12.68;100.00
53960;BME280;39866;48.638;-2.020;2024-03-07T00:53:08;101675.66;;;12.60;100.00
53960;BME280;39866;48.638;-2.020;2024-03-07T00:55:33;101682.91;;;12.55;100.00
53960;BME280;39866;48.638;-2.020;2024-03-07T00:57:59;101675.66;;;12.60;100.00
53960;BME280;39866;48.638;-2.020;2024-03-07T01:00:24;101676.88;;;12.45;100.00
53960;BME280;39866;48.638;-2.020;2024-03-07T01:02:49;101666.38;;;12.36;100.00
53960;BME280;39866;48.638;-2.020;2024-03-07T01:05:18;101668.72;;;12.51;100.00
53960;BME280;39866;48.638;-2.020;2024-03-07T01:07:44;101668.94;;;12.42;100.00
53960;BME280;39866;48.638;-2.020;2024-03-07T01:10:12;101670.59;;;12.48;100.00
53960;BME280;39866;48.638;-2.020;2024-03-07T01:12:37;101659.84;;;12.51;100.00
53960;BME280;39866;48.638;-2.020;2024-03-07T01:15:03;101666.53;;;12.30;100.00
53960;BME280;39866;48.638;-2.020;2024-03-07T01:17:32;101660.16;;;12.37;100.00
53960;BME280;39866;48.638;-2.020;2024-03-07T01:19:57;101656.56;;;12.36;100.00
53960;BME280;39866;48.638;-2.020;2024-03-07T01:22:23;101662.84;;;12.35;100.00
53960;BME280;39866;48.638;-2.020;2024-03-07T01:24:49;101657.44;;;12.38;100.00
53960;BME280;39866;48.638;-2.020;2024-03-07T01:27:16;101653.78;;;12.43;100.00
53960;BME280;39866;48.638;-2.020;2024-03-07T01:29:41;101653.78;;;12.43;100.00
53960;BME280;39866;48.638;-2.020;2024-03-07T01:32:08;101639.72;;;12.34;100.00
53960;BME280;39866;48.638;-2.020;2024-03-07T01:34:33;101641.72;;;12.25;100.00
53960;BME280;39866;48.638;-2.020;2024-03-07T01:36:58;101642.72;;;12.19;100.00
53960;BME280;39866;48.638;-2.020;2024-03-07T01:39:24;101643.53;;;12.23;100.00
53960;BME280;39866;48.638;-2.020;2024-03-07T01:41:49;101646.25;;;12.20;100.00
53960;BME280;39866;48.638;-2.020;2024-03-07T01:44:15;101633.00;;;12.17;100.00
53960;BME280;39866;48.638;-2.020;2024-03-07T01:46:40;101634.75;;;12.18;100.00
53960;BME280;39866;48.638;-2.020;2024-03-07T01:49:07;101640.97;;;12.18;100.00
53960;BME280;39866;48.638;-2.020;2024-03-07T01:51:34;101634.69;;;12.19;100.00
53960;BME280;39866;48.638;-2.020;2024-03-07T01:54:01;101641.88;;;12.17;100.00
53960;BME280;39866;48.638;-2.020;2024-03-07T01:56:27;101639.31;;;12.11;100.00
53960;BME280;39866;48.638;-2.020;2024-03-07T01:58:53;101618.97;;;12.05;100.00
53960;BME280;39866;48.638;-2.020;2024-03-07T02:01:20;101623.41;;;12.06;100.00
53960;BME280;39866;48.638;-2.020;2024-03-07T02:03:45;101630.66;;;12.00;100.00
53960;BME280;39866;48.638;-2.020;2024-03-07T02:06:11;101629.59;;;12.08;100.00
53960;BME280;39866;48.638;-2.020;2024-03-07T02:08:37;101622.44;;;12.10;100.00
53960;BME280;39866;48.638;-2.020;2024-03-07T02:11:02;101628.63;;;12.12;100.00
53960;BME280;39866;48.638;-2.020;2024-03-07T02:13:27;101630.47;;;12.09;100.00
53960;BME280;39866;48.638;-2.020;2024-03-07T02:15:53;101622.56;;;12.04;100.00
53960;BME280;39866;48.638;-2.020;2024-03-07T02:18:20;101624.16;;;12.13;100.00
53960;BME280;39866;48.638;-2.020;2024-03-07T02:20:46;101618.97;;;12.05;100.00
53960;BME280;39866;48.638;-2.020;2024-03-07T02:23:12;101611.06;;;12.01;100.00
53960;BME280;39866;48.638;-2.020;2024-03-07T02:25:38;101615.50;;;12.02;100.00
53960;BME280;39866;48.638;-2.020;2024-03-07T02:28:06;101611.91;;;12.03;100.00
53960;BME280;39866;48.638;-2.020;2024-03-07T02:30:32;101611.81;;;12.07;100.00
53960;BME280;39866;48.638;-2.020;2024-03-07T02:32:58;101604.81;;;12.02;100.00
53960;BME280;39866;48.638;-2.020;2024-03-07T02:35:34;101603.25;;;11.92;100.00
53960;BME280;39866;48.638;-2.020;2024-03-07T02:38:05;101597.94;;;11.90;100.00
53960;BME280;39866;48.638;-2.020;2024-03-07T02:40:31;101598.81;;;11.92;100.00
53960;BME280;39866;48.638;-2.020;2024-03-07T02:42:56;101597.06;;;11.89;100.00
53960;BME280;39866;48.638;-2.020;2024-03-07T02:45:22;101596.19;;;11.87;100.00
53960;BME280;39866;48.638;-2.020;2024-03-07T02:47:48;101596.13;;;11.92;100.00
53960;BME280;39866;48.638;-2.020;2024-03-07T02:50:13;101594.34;;;11.91;100.00
53960;BME280;39866;48.638;-2.020;2024-03-07T02:52:40;101594.41;;;11.89;100.00
53960;BME280;39866;48.638;-2.020;2024-03-07T02:55:05;101598.06;;;11.82;100.00
53960;BME280;39866;48.638;-2.020;2024-03-07T02:57:31;101594.66;;;11.76;100.00
53960;BME280;39866;48.638;-2.020;2024-03-07T02:59:57;101583.91;;;11.79;100.00
53960;BME280;39866;48.638;-2.020;2024-03-07T03:02:22;101580.41;;;11.77;100.00
53960;BME280;39866;48.638;-2.020;2024-03-07T03:04:48;101579.38;;;11.85;100.00
53960;BME280;39866;48.638;-2.020;2024-03-07T03:07:13;101576.72;;;11.82;100.00
53960;BME280;39866;48.638;-2.020;2024-03-07T03:09:38;101577.63;;;11.81;100.00
53960;BME280;39866;48.638;-2.020;2024-03-07T03:12:11;101564.38;;;11.77;100.00
53960;BME280;39866;48.638;-2.020;2024-03-07T03:14:36;101574.94;;;11.84;100.00
53960;BME280;39866;48.638;-2.020;2024-03-07T03:17:02;101578.59;;;11.77;100.00
53960;BME280;39866;48.638;-2.020;2024-03-07T03:19:28;101573.28;;;11.77;100.00
53960;BME280;39866;48.638;-2.020;2024-03-07T03:21:53;101566.34;;;11.67;100.00
53960;BME280;39866;48.638;-2.020;2024-03-07T03:24:21;101568.22;;;11.63;100.00
53960;BME280;39866;48.638;-2.020;2024-03-07T03:26:46;101564.63;;;11.64;100.00
53960;BME280;39866;48.638;-2.020;2024-03-07T03:29:11;101556.53;;;11.69;100.00
53960;BME280;39866;48.638;-2.020;2024-03-07T03:31:38;101547.81;;;11.61;100.00
53960;BME280;39866;48.638;-2.020;2024-03-07T03:34:04;101549.50;;;11.65;100.00
53960;BME280;39866;48.638;-2.020;2024-03-07T03:36:29;101545.91;;;11.66;100.00
53960;BME280;39866;48.638;-2.020;2024-03-07T03:38:55;101538.66;;;11.74;100.00
53960;BME280;39866;48.638;-2.020;2024-03-07T03:41:20;101534.19;;;11.75;100.00
53960;BME280;39866;48.638;-2.020;2024-03-07T03:43:46;101538.59;;;11.77;100.00
53960;BME280;39866;48.638;-2.020;2024-03-07T03:46:12;101529.88;;;11.69;100.00
53960;BME280;39866;48.638;-2.020;2024-03-07T03:48:41;101525.44;;;11.68;100.00
53960;BME280;39866;48.638;-2.020;2024-03-07T03:51:07;101522.69;;;11.71;100.00
53960;BME280;39866;48.638;-2.020;2024-03-07T03:53:34;101531.34;;;11.82;100.00
53960;BME280;39866;48.638;-2.020;2024-03-07T03:55:59;101522.59;;;11.77;100.00
53960;BME280;39866;48.638;-2.020;2024-03-07T03:58:25;101517.25;;;11.77;100.00
53960;BME280;39866;48.638;-2.020;2024-03-07T04:00:50;101517.19;;;11.79;100.00
53960;BME280;39866;48.638;-2.020;2024-03-07T04:03:16;101517.19;;;11.80;100.00
53960;BME280;39866;48.638;-2.020;2024-03-07T04:05:42;101510.97;;;11.80;100.00
53960;BME280;39866;48.638;-2.020;2024-03-07T04:08:07;101512.59;;;11.88;100.00
53960;BME280;39866;48.638;-2.020;2024-03-07T04:10:34;101507.31;;;11.85;100.00
53960;BME280;39866;48.638;-2.020;2024-03-07T04:12:59;101516.19;;;11.86;100.00
53960;BME280;39866;48.638;-2.020;2024-03-07T04:15:25;101505.63;;;11.80;100.00
53960;BME280;39866;48.638;-2.020;2024-03-07T04:17:52;101515.41;;;11.81;100.00
53960;BME280;39866;48.638;-2.020;2024-03-07T04:20:18;101508.25;;;11.83;100.00
53960;BME280;39866;48.638;-2.020;2024-03-07T04:22:43;101507.44;;;11.78;100.00
53960;BME280;39866;48.638;-2.020;2024-03-07T04:25:08;101508.31;;;11.78;100.00
53960;BME280;39866;48.638;-2.020;2024-03-07T04:27:35;101509.13;;;11.82;100.00
53960;BME280;39866;48.638;-2.020;2024-03-07T04:30:06;101507.44;;;11.78;100.00
53960;BME280;39866;48.638;-2.020;2024-03-07T04:32:32;101510.91;;;11.83;100.00
53960;BME280;39866;48.638;-2.020;2024-03-07T04:34:59;101527.06;;;11.75;100.00
53960;BME280;39866;48.638;-2.020;2024-03-07T04:37:25;101517.19;;;11.79;100.00
53960;BME280;39866;48.638;-2.020;2024-03-07T04:39:52;101525.19;;;11.79;100.00
53960;BME280;39866;48.638;-2.020;2024-03-07T04:42:18;101511.00;;;11.78;100.00
53960;BME280;39866;48.638;-2.020;2024-03-07T04:44:43;101516.25;;;11.84;100.00
53960;BME280;39866;48.638;-2.020;2024-03-07T04:47:08;101519.06;;;11.75;100.00
53960;BME280;39866;48.638;-2.020;2024-03-07T04:49:34;101511.97;;;11.76;100.00
53960;BME280;39866;48.638;-2.020;2024-03-07T04:52:00;101509.06;;;11.86;100.00
53960;BME280;39866;48.638;-2.020;2024-03-07T04:54:27;101512.81;;;11.76;100.00
53960;BME280;39866;48.638;-2.020;2024-03-07T04:56:53;101515.84;;;11.59;100.00
53960;BME280;39866;48.638;-2.020;2024-03-07T04:59:20;101519.25;;;11.66;100.00
53960;BME280;39866;48.638;-2.020;2024-03-07T05:01:46;101512.84;;;11.75;100.00
53960;BME280;39866;48.638;-2.020;2024-03-07T05:04:12;101513.97;;;11.64;100.00
53960;BME280;39866;48.638;-2.020;2024-03-07T05:06:39;101520.22;;;11.63;100.00
53960;BME280;39866;48.638;-2.020;2024-03-07T05:09:07;101517.34;;;11.71;100.00
53960;BME280;39866;48.638;-2.020;2024-03-07T05:11:34;101508.53;;;11.69;100.00
53960;BME280;39866;48.638;-2.020;2024-03-07T05:14:00;101509.69;;;11.56;100.00
53960;BME280;39866;48.638;-2.020;2024-03-07T05:16:27;101518.38;;;11.65;100.00
53960;BME280;39866;48.638;-2.020;2024-03-07T05:18:52;101512.31;;;11.57;100.00
53960;BME280;39866;48.638;-2.020;2024-03-07T05:21:18;101513.97;;;11.63;100.00
53960;BME280;39866;48.638;-2.020;2024-03-07T05:24:00;101513.28;;;11.53;100.00
53960;BME280;39866;48.638;-2.020;2024-03-07T05:26:26;101506.31;;;11.48;100.00
53960;BME280;39866;48.638;-2.020;2024-03-07T05:28:51;101505.25;;;11.55;100.00
53960;BME280;39866;48.638;-2.020;2024-03-07T05:31:17;101497.34;;;11.50;100.00
53960;BME280;39866;48.638;-2.020;2024-03-07T05:33:45;101496.38;;;11.56;100.00
53960;BME280;39866;48.638;-2.020;2024-03-07T05:36:10;101502.69;;;11.50;100.00
53960;BME280;39866;48.638;-2.020;2024-03-07T05:38:43;101497.44;;;11.47;100.00
53960;BME280;39866;48.638;-2.020;2024-03-07T05:41:12;101495.88;;;11.35;100.00
53960;BME280;39866;48.638;-2.020;2024-03-07T05:43:40;101494.97;;;11.36;100.00
53960;BME280;39866;48.638;-2.020;2024-03-07T05:46:06;101493.13;;;11.40;100.00
53960;BME280;39866;48.638;-2.020;2024-03-07T05:48:36;101494.06;;;11.37;100.00
53960;BME280;39866;48.638;-2.020;2024-03-07T05:51:02;101487.94;;;11.32;100.00
53960;BME280;39866;48.638;-2.020;2024-03-07T05:53:27;101488.09;;;11.25;100.00
53960;BME280;39866;48.638;-2.020;2024-03-07T05:55:53;101486.19;;;11.31;100.00
53960;BME280;39866;48.638;-2.020;2024-03-07T05:58:18;101480.97;;;11.25;100.00
53960;BME280;39866;48.638;-2.020;2024-03-07T06:00:45;101481.06;;;11.21;100.00
53960;BME280;39866;48.638;-2.020;2024-03-07T06:03:19;101481.84;;;11.27;100.00
53960;BME280;39866;48.638;-2.020;2024-03-07T06:05:48;101478.50;;;11.16;100.00
53960;BME280;39866;48.638;-2.020;2024-03-07T06:08:18;101485.44;;;11.25;100.00
53960;BME280;39866;48.638;-2.020;2024-03-07T06:10:44;101492.41;;;11.32;100.00
53960;BME280;39866;48.638;-2.020;2024-03-07T06:13:10;101488.84;;;11.31;100.00
53960;BME280;39866;48.638;-2.020;2024-03-07T06:15:37;101489.75;;;11.30;100.00
53960;BME280;39866;48.638;-2.020;2024-03-07T06:18:03;101486.28;;;11.27;100.00
53960;BME280;39866;48.638;-2.020;2024-03-07T06:20:29;101491.66;;;11.24;100.00
53960;BME280;39866;48.638;-2.020;2024-03-07T06:22:54;101486.25;;;11.28;100.00
53960;BME280;39866;48.638;-2.020;2024-03-07T06:25:19;101486.25;;;11.28;100.00
53960;BME280;39866;48.638;-2.020;2024-03-07T06:27:58;101481.03;;;11.22;100.00
53960;BME280;39866;48.638;-2.020;2024-03-07T06:30:24;101477.78;;;11.06;100.00
53960;BME280;39866;48.638;-2.020;2024-03-07T06:32:51;101474.94;;;11.15;100.00
53960;BME280;39866;48.638;-2.020;2024-03-07T06:35:16;101476.66;;;11.20;100.00
53960;BME280;39866;48.638;-2.020;2024-03-07T06:37:44;101469.66;;;11.12;100.00
53960;BME280;39866;48.638;-2.020;2024-03-07T06:40:10;101464.28;;;11.14;100.00
53960;BME280;39866;48.638;-2.020;2024-03-07T06:42:35;101469.56;;;11.19;100.00
53960;BME280;39866;48.638;-2.020;2024-03-07T06:45:03;101462.44;;;11.18;100.00
53960;BME280;39866;48.638;-2.020;2024-03-07T06:47:30;101459.69;;;11.24;100.00
53960;BME280;39866;48.638;-2.020;2024-03-07T06:49:55;101436.75;;;11.15;100.00
53960;BME280;39866;48.638;-2.020;2024-03-07T06:52:21;101452.66;;;11.20;100.00
53960;BME280;39866;48.638;-2.020;2024-03-07T06:54:46;101442.00;;;11.20;100.00
53960;BME280;39866;48.638;-2.020;2024-03-07T06:57:12;101438.41;;;11.21;100.00
53960;BME280;39866;48.638;-2.020;2024-03-07T06:59:37;101439.34;;;11.18;100.00
53960;BME280;39866;48.638;-2.020;2024-03-07T07:02:03;101437.63;;;11.15;100.00
53960;BME280;39866;48.638;-2.020;2024-03-07T07:04:29;101447.34;;;11.18;100.00
53960;BME280;39866;48.638;-2.020;2024-03-07T07:07:07;101437.09;;;10.98;100.00
53960;BME280;39866;48.638;-2.020;2024-03-07T07:09:33;101435.06;;;11.09;100.00
53960;BME280;39866;48.638;-2.020;2024-03-07T07:12:00;101443.91;;;11.13;100.00
53960;BME280;39866;48.638;-2.020;2024-03-07T07:14:27;101451.06;;;11.09;100.00
53960;BME280;39866;48.638;-2.020;2024-03-07T07:16:53;101453.63;;;11.14;100.00
53960;BME280;39866;48.638;-2.020;2024-03-07T07:19:18;101448.28;;;11.15;100.00
53960;BME280;39866;48.638;-2.020;2024-03-07T07:21:44;101461.69;;;11.12;100.00
53960;BME280;39866;48.638;-2.020;2024-03-07T07:24:09;101447.44;;;11.15;100.00
53960;BME280;39866;48.638;-2.020;2024-03-07T07:26:36;101446.41;;;11.21;100.00
53960;BME280;39866;48.638;-2.020;2024-03-07T07:29:02;101443.88;;;11.14;100.00
53960;BME280;39866;48.638;-2.020;2024-03-07T07:31:30;101440.31;;;11.14;100.00
53960;BME280;39866;48.638;-2.020;2024-03-07T07:33:57;101435.91;;;11.13;100.00
53960;BME280;39866;48.638;-2.020;2024-03-07T07:36:22;101437.53;;;11.20;100.00
53960;BME280;39866;48.638;-2.020;2024-03-07T07:38:48;101435.06;;;11.11;100.00
53960;BME280;39866;48.638;-2.020;2024-03-07T07:41:13;101438.38;;;11.22;100.00
53960;BME280;39866;48.638;-2.020;2024-03-07T07:43:40;101423.63;;;11.04;100.00
53960;BME280;39866;48.638;-2.020;2024-03-07T07:46:05;101428.66;;;11.20;100.00
53960;BME280;39866;48.638;-2.020;2024-03-07T07:48:31;101426.84;;;11.22;100.00
53960;BME280;39866;48.638;-2.020;2024-03-07T07:50:56;101425.13;;;11.18;100.00
53960;BME280;39866;48.638;-2.020;2024-03-07T07:53:21;101428.44;;;11.30;100.00
53960;BME280;39866;48.638;-2.020;2024-03-07T07:55:47;101421.41;;;11.28;100.00
53960;BME280;39866;48.638;-2.020;2024-03-07T07:58:14;101417.19;;;11.16;100.00
53960;BME280;39866;48.638;-2.020;2024-03-07T08:00:39;101424.50;;;11.06;100.00
53960;BME280;39866;48.638;-2.020;2024-03-07T08:03:05;101411.81;;;11.19;100.00
53960;BME280;39866;48.638;-2.020;2024-03-07T08:05:35;101402.75;;;11.26;100.00
53960;BME280;39866;48.638;-2.020;2024-03-07T08:08:05;101402.06;;;11.16;100.00
53960;BME280;39866;48.638;-2.020;2024-03-07T08:10:32;101407.44;;;11.15;100.00
53960;BME280;39866;48.638;-2.020;2024-03-07T08:12:59;101396.47;;;11.29;100.00
53960;BME280;39866;48.638;-2.020;2024-03-07T08:15:28;101397.63;;;11.17;100.00
53960;BME280;39866;48.638;-2.020;2024-03-07T08:17:54;101396.84;;;11.12;100.00
53960;BME280;39866;48.638;-2.020;2024-03-07T08:20:24;101401.56;;;11.41;100.00
53960;BME280;39866;48.638;-2.020;2024-03-07T08:22:51;101398.22;;;11.31;100.00
53960;BME280;39866;48.638;-2.020;2024-03-07T08:25:21;101389.56;;;11.20;100.00
53960;BME280;39866;48.638;-2.020;2024-03-07T08:27:48;101386.91;;;11.20;100.00
53960;BME280;39866;48.638;-2.020;2024-03-07T08:30:15;101384.47;;;11.50;100.00
53960;BME280;39866;48.638;-2.020;2024-03-07T08:32:45;101376.94;;;11.28;100.00
53960;BME280;39866;48.638;-2.020;2024-03-07T08:35:11;101385.72;;;11.33;100.00
53960;BME280;39866;48.638;-2.020;2024-03-07T08:37:41;101386.56;;;11.35;100.00
53960;BME280;39866;48.638;-2.020;2024-03-07T08:40:08;101380.38;;;11.33;100.00
53960;BME280;39866;48.638;-2.020;2024-03-07T08:42:35;101385.06;;;11.22;100.00
53960;BME280;39866;48.638;-2.020;2024-03-07T08:45:02;101377.97;;;11.21;100.00
53960;BME280;39866;48.638;-2.020;2024-03-07T08:47:31;101384.47;;;11.50;100.00
53960;BME280;39866;48.638;-2.020;2024-03-07T08:49:57;101373.81;;;11.50;100.00
53960;BME280;39866;48.638;-2.020;2024-03-07T08:52:23;101367.38;;;11.60;100.00
53960;BME280;39866;48.638;-2.020;2024-03-07T08:54:48;101365.47;;;11.65;100.00
53960;BME280;39866;48.638;-2.020;2024-03-07T08:57:14;101354.97;;;11.57;100.00
53960;BME280;39866;48.638;-2.020;2024-03-07T08:59:42;101355.63;;;11.67;100.00
53960;BME280;39866;48.638;-2.020;2024-03-07T09:02:08;101360.88;;;11.72;100.00
53960;BME280;39866;48.638;-2.020;2024-03-07T09:04:35;101354.69;;;11.70;100.00
53960;BME280;39866;48.638;-2.020;2024-03-07T09:07:01;101356.91;;;11.89;100.00
53960;BME280;39866;48.638;-2.020;2024-03-07T09:09:26;101349.66;;;11.95;100.00
53960;BME280;39866;48.638;-2.020;2024-03-07T09:11:52;101349.72;;;11.92;100.00
53960;BME280;39866;48.638;-2.020;2024-03-07T09:14:17;101345.38;;;11.89;100.00
53960;BME280;39866;48.638;-2.020;2024-03-07T09:16:42;101339.56;;;12.07;100.00
53960;BME280;39866;48.638;-2.020;2024-03-07T09:19:09;101342.22;;;12.09;100.00
53960;BME280;39866;48.638;-2.020;2024-03-07T09:21:39;101335.63;;;12.22;100.00
53960;BME280;39866;48.638;-2.020;2024-03-07T09:24:05;101335.63;;;12.22;100.00
53960;BME280;39866;48.638;-2.020;2024-03-07T09:26:31;101330.44;;;12.16;100.00
53960;BME280;39866;48.638;-2.020;2024-03-07T09:28:57;101320.34;;;12.27;100.00
53960;BME280;39866;48.638;-2.020;2024-03-07T09:31:22;101313.09;;;12.32;100.00
53960;BME280;39866;48.638;-2.020;2024-03-07T09:33:48;101315.66;;;12.37;100.00
53960;BME280;39866;48.638;-2.020;2024-03-07T09:36:14;101305.75;;;12.40;100.00
53960;BME280;39866;48.638;-2.020;2024-03-07T09:38:39;101309.00;;;12.52;100.00
53960;BME280;39866;48.638;-2.020;2024-03-07T09:41:06;101301.06;;;12.49;100.00
53960;BME280;39866;48.638;-2.020;2024-03-07T09:43:33;101299.06;;;12.57;100.00
53960;BME280;39866;48.638;-2.020;2024-03-07T09:46:00;101299.25;;;12.51;100.00
53960;BME280;39866;48.638;-2.020;2024-03-07T09:48:27;101297.31;;;12.56;100.00
53960;BME280;39866;48.638;-2.020;2024-03-07T09:50:54;101285.63;;;12.60;100.00
53960;BME280;39866;48.638;-2.020;2024-03-07T09:53:20;101290.91;;;12.63;100.00
53960;BME280;39866;48.638;-2.020;2024-03-07T09:55:46;101287.66;;;12.83;100.00
53960;BME280;39866;48.638;-2.020;2024-03-07T09:58:12;101275.53;;;12.71;100.00
53960;BME280;39866;48.638;-2.020;2024-03-07T10:00:42;101266.09;;;12.89;100.00
53960;BME280;39866;48.638;-2.020;2024-03-07T10:03:12;101270.91;;;12.76;100.00
53960;BME280;39866;48.638;-2.020;2024-03-07T10:05:39;101259.78;;;12.92;100.00
53960;BME280;39866;48.638;-2.020;2024-03-07T10:08:06;101257.56;;;13.06;100.00
53960;BME280;39866;48.638;-2.020;2024-03-07T10:10:32;101253.41;;;13.25;100.00
53960;BME280;39866;48.638;-2.020;2024-03-07T10:12:57;101258.78;;;13.25;100.00
53960;BME280;39866;48.638;-2.020;2024-03-07T10:15:30;101247.25;;;13.22;100.00
53960;BME280;39866;48.638;-2.020;2024-03-07T10:17:55;101251.69;;;13.24;100.00
53960;BME280;39866;48.638;-2.020;2024-03-07T10:20:21;101236.91;;;13.41;100.00
53960;BME280;39866;48.638;-2.020;2024-03-07T10:22:47;101231.72;;;13.34;100.00
53960;BME280;39866;48.638;-2.020;2024-03-07T10:25:17;101225.50;;;13.34;100.00
53960;BME280;39866;48.638;-2.020;2024-03-07T10:27:42;101226.28;;;13.37;100.00
53960;BME280;39866;48.638;-2.020;2024-03-07T10:30:09;101224.00;;;13.25;100.00
53960;BME280;39866;48.638;-2.020;2024-03-07T10:32:35;101218.78;;;13.49;100.00
53960;BME280;39866;48.638;-2.020;2024-03-07T10:35:03;101217.16;;;13.45;100.00
53960;BME280;39866;48.638;-2.020;2024-03-07T10:37:29;101216.50;;;13.63;100.00
53960;BME280;39866;48.638;-2.020;2024-03-07T10:39:55;101217.75;;;13.79;100.00
53960;BME280;39866;48.638;-2.020;2024-03-07T10:42:21;101217.25;;;13.68;100.00
53960;BME280;39866;48.638;-2.020;2024-03-07T10:44:51;101199.34;;;13.70;100.00
53960;BME280;39866;48.638;-2.020;2024-03-07T10:47:21;101206.84;;;13.59;100.00
53960;BME280;39866;48.638;-2.020;2024-03-07T10:50:00;101200.78;;;13.54;100.00
53960;BME280;39866;48.638;-2.020;2024-03-07T10:52:39;101198.97;;;13.81;100.00
53960;BME280;39866;48.638;-2.020;2024-03-07T10:57:52;101180.63;;;13.95;100.00
53960;BME280;39866;48.638;-2.020;2024-03-07T11:00:26;101185.19;;;13.67;100.00
53960;BME280;39866;48.638;-2.020;2024-03-07T11:03:08;101180.28;;;13.79;100.00
53960;BME280;39866;48.638;-2.020;2024-03-07T11:05:34;101179.66;;;13.71;100.00
53960;BME280;39866;48.638;-2.020;2024-03-07T11:08:02;101184.91;;;14.01;100.00
53960;BME280;39866;48.638;-2.020;2024-03-07T11:10:31;101168.16;;;14.19;100.00
53960;BME280;39866;48.638;-2.020;2024-03-07T11:12:58;101165.28;;;14.00;100.00
53960;BME280;39866;48.638;-2.020;2024-03-07T11:15:24;101164.88;;;14.11;100.00
53960;BME280;39866;48.638;-2.020;2024-03-07T11:17:53;101161.31;;;14.10;100.00
53960;BME280;39866;48.638;-2.020;2024-03-07T11:22:49;101157.34;;;14.46;96.68
53960;BME280;39866;48.638;-2.020;2024-03-07T11:25:17;101153.22;;;14.12;96.97
53960;BME280;39866;48.638;-2.020;2024-03-07T11:27:51;101155.06;;;14.35;95.97
53960;BME280;39866;48.638;-2.020;2024-03-07T11:30:16;101140.00;;;14.56;95.78
53960;BME280;39866;48.638;-2.020;2024-03-07T11:32:43;101139.72;;;14.64;93.77
53960;BME280;39866;48.638;-2.020;2024-03-07T11:35:12;101152.75;;;14.73;92.62
53960;BME280;39866;48.638;-2.020;2024-03-07T11:37:42;101136.78;;;14.46;94.89
53960;BME280;39866;48.638;-2.020;2024-03-07T11:42:50;101119.47;;;14.31;91.02
53960;BME280;39866;48.638;-2.020;2024-03-07T11:45:17;101132.06;;;14.29;95.06
53960;BME280;39866;48.638;-2.020;2024-03-07T11:47:51;101122.63;;;14.43;93.23
53960;BME280;39866;48.638;-2.020;2024-03-07T11:50:23;101115.53;;;14.42;93.09
53960;BME280;39866;48.638;-2.020;2024-03-07T11:52:51;101106.34;;;14.49;91.40
53960;BME280;39866;48.638;-2.020;2024-03-07T11:55:17;101097.56;;;14.44;88.05
53960;BME280;39866;48.638;-2.020;2024-03-07T11:57:44;101096.75;;;14.65;89.00
53960;BME280;39866;48.638;-2.020;2024-03-07T12:00:11;101109.72;;;14.54;89.50
53960;BME280;39866;48.638;-2.020;2024-03-07T12:02:38;101103.59;;;14.74;89.63
53960;BME280;39866;48.638;-2.020;2024-03-07T12:05:05;101093.66;;;14.76;88.35
53960;BME280;39866;48.638;-2.020;2024-03-07T12:07:34;101096.66;;;14.90;86.35
53960;BME280;39866;48.638;-2.020;2024-03-07T12:10:00;101085.31;;;14.83;86.18
53960;BME280;39866;48.638;-2.020;2024-03-07T12:12:28;101084.13;;;14.91;88.32
53960;BME280;39866;48.638;-2.020;2024-03-07T12:14:54;101078.44;;;14.76;87.35
53960;BME280;39866;48.638;-2.020;2024-03-07T12:17:20;101071.91;;;14.83;83.91
53960;BME280;39866;48.638;-2.020;2024-03-07T12:19:46;101067.50;;;14.82;89.99
53960;BME280;39866;48.638;-2.020;2024-03-07T12:22:12;101059.69;;;14.76;91.14
53960;BME280;39866;48.638;-2.020;2024-03-07T12:24:41;101058.50;;;14.83;88.94
53960;BME280;39866;48.638;-2.020;2024-03-07T12:27:12;101056.13;;;14.76;90.81
53960;BME280;39866;48.638;-2.020;2024-03-07T12:29:41;101048.56;;;14.85;91.43
53960;BME280;39866;48.638;-2.020;2024-03-07T12:32:13;101042.53;;;14.80;87.21
53960;BME280;39866;48.638;-2.020;2024-03-07T12:34:45;101048.09;;;14.76;89.30
53960;BME280;39866;48.638;-2.020;2024-03-07T12:37:12;101041.03;;;14.95;89.40